createdAt,value
2022-11-01T00:02:10.563Z,110.35
2022-11-01T00:04:37.318Z,102.53
2022-11-01T00:07:04.740Z,105.38
2022-11-01T00:09:31.543Z,106.20
2022-11-01T00:11:58.779Z,116.30
2022-11-01T00:14:25.339Z,116.03
2022-11-01T00:16:51.916Z,108.97
2022-11-01T00:19:18.433Z,103.15
2022-11-01T00:21:45.129Z,99.35
2022-11-01T00:24:11.827Z,95.38
2022-11-01T00:26:38.430Z,98.20
2022-11-01T00:29:05.127Z,100.47
2022-11-01T00:31:32.120Z,100.28
2022-11-01T00:33:58.715Z,91.97
2022-11-01T00:36:25.278Z,103.65
2022-11-01T00:38:52.759Z,96.75
2022-11-01T00:41:21.612Z,103.95
2022-11-01T00:43:48.932Z,94.28
2022-11-01T00:46:16.280Z,107.93
2022-11-01T00:48:42.836Z,103.68
2022-11-01T00:51:09.479Z,104.88
2022-11-01T00:53:36.019Z,101.45
2022-11-01T00:56:05.448Z,117.32
2022-11-01T00:58:32.381Z,110.28
2022-11-01T01:00:59.362Z,109.13
2022-11-01T01:03:26.216Z,105.65
2022-11-01T01:05:54.384Z,101.53
2022-11-01T01:08:22.095Z,106.78
2022-11-01T01:10:49.188Z,111.47
2022-11-01T01:13:16.324Z,111.32
2022-11-01T01:15:42.893Z,105.72
2022-11-01T01:18:10.776Z,107.28
2022-11-01T01:20:37.625Z,106.70
2022-11-01T01:23:04.828Z,115.65
2022-11-01T01:25:31.751Z,104.78
2022-11-01T01:27:58.445Z,116.25
2022-11-01T01:30:25.069Z,106.18
2022-11-01T01:32:51.602Z,112.15
2022-11-01T01:35:18.275Z,105.10
2022-11-01T01:37:44.796Z,104.45
2022-11-01T01:40:11.582Z,108.43
2022-11-01T01:42:41.515Z,98.45
2022-11-01T01:45:39.503Z,99.63
2022-11-01T01:48:14.677Z,101.80
2022-11-01T01:50:55.694Z,110.40
2022-11-01T01:53:31.369Z,99.15
2022-11-01T01:56:01.251Z,96.90
2022-11-01T01:58:59.373Z,98.45
2022-11-01T02:01:26.965Z,111.05
2022-11-01T02:03:53.684Z,115.05
2022-11-01T02:09:00.282Z,103.63
2022-11-01T02:11:27.065Z,91.68
2022-11-01T02:13:53.790Z,112.93
2022-11-01T02:16:26.203Z,113.50
2022-11-01T02:19:21.918Z,98.70
2022-11-01T02:22:16.880Z,90.55
2022-11-01T02:25:26.314Z,89.78
2022-11-01T02:28:40.888Z,104.18
2022-11-01T02:31:58.237Z,104.15
2022-11-01T02:34:57.132Z,95.68
2022-11-01T02:38:04.112Z,90.93
2022-11-01T02:40:47.744Z,91.75
2022-11-01T02:43:29.327Z,98.72
2022-11-01T02:45:58.597Z,91.47
2022-11-01T02:48:25.904Z,99.05
2022-11-01T02:50:57.233Z,98.05
2022-11-01T02:53:23.901Z,101.00
2022-11-01T02:55:53.962Z,101.68
2022-11-01T02:58:25.473Z,91.38
2022-11-01T03:00:52.837Z,100.40
2022-11-01T03:03:29.208Z,93.00
2022-11-01T03:06:11.555Z,92.95
2022-11-01T03:08:47.160Z,84.78
2022-11-01T03:11:16.899Z,94.68
2022-11-01T03:14:10.666Z,95.93
2022-11-01T03:17:02.370Z,87.97
2022-11-01T03:19:43.651Z,91.32
2022-11-01T03:22:30.986Z,102.75
2022-11-01T03:25:31.022Z,106.32
2022-11-01T03:28:22.819Z,108.35
2022-11-01T03:30:59.427Z,112.40
2022-11-01T03:33:27.523Z,127.40
2022-11-01T03:36:01.022Z,270.70
2022-11-01T03:38:33.035Z,130.82
2022-11-01T03:41:06.902Z,114.68
2022-11-01T03:43:36.211Z,178.15
2022-11-01T03:46:03.013Z,148.02
2022-11-01T03:48:29.563Z,135.95
2022-11-01T03:50:56.361Z,138.63
2022-11-01T03:53:23.636Z,204.80
2022-11-01T03:55:50.552Z,216.50
2022-11-01T03:58:17.287Z,257.23
2022-11-01T04:00:46.364Z,240.48
2022-11-01T04:03:13.240Z,344.80
2022-11-01T04:05:42.091Z,291.10
2022-11-01T04:08:11.190Z,272.95
2022-11-01T04:10:37.801Z,295.33
2022-11-01T04:13:04.676Z,219.20
2022-11-01T04:15:50.001Z,270.25
2022-11-01T04:21:16.986Z,248.05
2022-11-01T04:23:45.096Z,271.08
2022-11-01T04:26:20.477Z,270.52
2022-11-01T04:28:59.524Z,268.23
2022-11-01T04:31:35.335Z,216.07
2022-11-01T04:34:05.125Z,827.40
2022-11-01T04:36:31.902Z,275.02
2022-11-01T04:38:58.904Z,282.75
2022-11-01T04:41:28.585Z,492.60
2022-11-01T04:43:58.738Z,361.23
2022-11-01T04:46:25.655Z,232.65
2022-11-01T04:48:52.166Z,270.63
2022-11-01T04:51:18.714Z,223.85
2022-11-01T04:53:45.329Z,205.55
2022-11-01T04:56:13.581Z,479.98
2022-11-01T04:58:44.803Z,261.45
2022-11-01T05:01:14.492Z,249.38
2022-11-01T05:03:41.673Z,171.88
2022-11-01T05:06:08.240Z,206.13
2022-11-01T05:08:34.838Z,204.20
2022-11-01T05:11:01.728Z,192.45
2022-11-01T05:13:28.909Z,315.65
2022-11-01T05:16:17.806Z,179.05
2022-11-01T05:18:45.033Z,188.50
2022-11-01T05:21:12.195Z,183.20
2022-11-01T05:23:38.903Z,179.52
2022-11-01T05:26:05.772Z,481.65
2022-11-01T05:28:32.396Z,254.93
2022-11-01T05:30:59.015Z,230.63
2022-11-01T05:33:25.994Z,214.40
2022-11-01T05:35:52.621Z,254.20
2022-11-01T05:38:19.137Z,265.50
2022-11-01T05:40:45.673Z,281.38
2022-11-01T05:43:12.201Z,206.57
2022-11-01T05:45:38.776Z,205.02
2022-11-01T05:48:05.568Z,179.45
2022-11-01T05:50:32.174Z,184.73
2022-11-01T05:53:10.010Z,153.60
2022-11-01T05:55:37.229Z,153.77
2022-11-01T05:58:04.155Z,118.43
2022-11-01T06:00:31.178Z,103.57
2022-11-01T06:02:59.159Z,138.63
2022-11-01T06:05:27.815Z,141.95
2022-11-01T06:07:54.468Z,124.88
2022-11-01T06:10:21.090Z,120.70
2022-11-01T06:12:47.624Z,81.10
2022-11-01T06:15:14.217Z,97.10
2022-11-01T06:17:40.776Z,80.18
2022-11-01T06:20:07.772Z,92.75
2022-11-01T06:22:37.845Z,87.57
2022-11-01T06:25:06.452Z,80.70
2022-11-01T06:27:33.275Z,77.18
2022-11-01T06:29:59.852Z,78.05
2022-11-01T06:32:26.391Z,78.85
2022-11-01T06:34:52.959Z,77.47
2022-11-01T06:37:19.498Z,77.63
2022-11-01T06:39:46.040Z,75.40
2022-11-01T06:42:12.610Z,80.80
2022-11-01T06:44:39.155Z,76.70
2022-11-01T06:47:05.733Z,77.45
2022-11-01T06:49:32.401Z,77.72
2022-11-01T06:51:58.943Z,78.60
2022-11-01T06:54:25.793Z,78.95
2022-11-01T06:56:52.472Z,77.43
2022-11-01T06:59:19.038Z,79.10
2022-11-01T07:01:45.698Z,79.38
2022-11-01T07:04:12.659Z,76.55
2022-11-01T07:06:42.344Z,77.70
2022-11-01T07:09:08.979Z,73.35
2022-11-01T07:11:35.848Z,74.50
2022-11-01T07:14:02.883Z,72.03
2022-11-01T07:16:32.838Z,73.00
2022-11-01T07:18:59.379Z,76.28
2022-11-01T07:21:26.244Z,72.97
2022-11-01T07:23:54.033Z,74.22
2022-11-01T07:26:21.405Z,78.38
2022-11-01T07:28:47.981Z,76.30
2022-11-01T07:31:14.566Z,73.35
2022-11-01T07:33:41.103Z,72.30
2022-11-01T07:36:08.481Z,71.10
2022-11-01T07:38:35.083Z,71.90
2022-11-01T07:41:04.804Z,72.45
2022-11-01T07:43:31.645Z,74.50
2022-11-01T07:46:04.113Z,72.05
2022-11-01T07:48:30.692Z,69.85
2022-11-01T07:50:57.545Z,68.18
2022-11-01T07:53:24.517Z,68.80
2022-11-01T07:55:51.459Z,70.50
2022-11-01T07:58:18.080Z,73.65
2022-11-01T08:00:45.103Z,72.43
2022-11-01T08:03:15.424Z,70.00
2022-11-01T08:05:43.495Z,68.18
2022-11-01T08:08:10.893Z,68.55
2022-11-01T08:10:38.839Z,68.55
2022-11-01T08:13:21.918Z,68.03
2022-11-01T08:15:50.094Z,69.60
2022-11-01T08:18:18.502Z,69.47
2022-11-01T08:20:45.254Z,69.40
2022-11-01T08:23:11.830Z,72.07
2022-11-01T08:25:38.726Z,73.60
2022-11-01T08:28:13.197Z,72.68
2022-11-01T08:30:41.995Z,73.55
2022-11-01T08:33:08.864Z,73.28
2022-11-01T08:35:36.184Z,72.03
2022-11-01T08:38:03.415Z,70.75
2022-11-01T08:40:31.640Z,74.60
2022-11-01T08:42:59.269Z,75.55
2022-11-01T08:45:27.221Z,72.50
2022-11-01T08:47:59.281Z,71.95
2022-11-01T08:50:26.408Z,69.57
2022-11-01T08:52:53.031Z,72.60
2022-11-01T08:55:19.774Z,75.25
2022-11-01T08:57:46.684Z,74.93
2022-11-01T09:00:13.886Z,73.13
2022-11-01T09:02:40.437Z,74.00
2022-11-01T09:05:07.629Z,73.35
2022-11-01T09:07:36.314Z,73.32
2022-11-01T09:10:04.242Z,72.10
2022-11-01T09:12:31.073Z,75.53
2022-11-01T09:14:57.758Z,72.63
2022-11-01T09:17:24.336Z,74.88
2022-11-01T09:19:50.922Z,77.82
2022-11-01T09:22:17.532Z,77.50
2022-11-01T09:24:44.104Z,76.60
2022-11-01T09:27:10.689Z,72.60
2022-11-01T09:29:37.221Z,74.75
2022-11-01T09:32:04.218Z,78.15
2022-11-01T09:34:30.971Z,77.85
2022-11-01T09:36:57.899Z,76.90
2022-11-01T09:39:24.470Z,77.63
2022-11-01T09:42:24.206Z,75.18
2022-11-01T09:44:55.575Z,74.50
2022-11-01T09:47:25.934Z,75.80
2022-11-01T09:50:23.860Z,74.57
2022-11-01T09:52:51.939Z,79.07
2022-11-01T09:55:43.867Z,77.90
2022-11-01T09:58:22.211Z,78.57
2022-11-01T10:01:19.153Z,76.18
2022-11-01T10:04:08.033Z,76.70
2022-11-01T10:06:41.974Z,75.78
2022-11-01T10:09:18.800Z,78.82
2022-11-01T10:12:03.448Z,74.63
2022-11-01T10:15:16.287Z,73.00
2022-11-01T10:17:52.710Z,73.30
2022-11-01T10:20:25.710Z,70.78
2022-11-01T10:22:52.312Z,69.90
2022-11-01T10:25:31.969Z,70.65
2022-11-01T10:27:58.441Z,67.05
2022-11-01T10:30:27.180Z,63.60
2022-11-01T10:33:03.295Z,63.38
2022-11-01T10:35:41.675Z,63.28
2022-11-01T10:38:30.196Z,61.22
2022-11-01T10:41:42.239Z,58.88
2022-11-01T10:44:24.349Z,55.40
2022-11-01T10:46:53.008Z,55.85
2022-11-01T10:52:35.257Z,51.17
2022-11-01T10:55:03.396Z,54.33
2022-11-01T10:57:38.549Z,53.47
2022-11-01T11:00:14.025Z,53.20
2022-11-01T11:02:47.484Z,55.65
2022-11-01T11:05:16.001Z,54.22
2022-11-01T11:07:43.322Z,56.67
2022-11-01T11:10:27.003Z,54.45
2022-11-01T11:13:02.835Z,53.42
2022-11-01T11:15:43.840Z,52.38
2022-11-01T11:18:39.516Z,53.25
2022-11-01T11:21:09.552Z,51.35
2022-11-01T11:23:44.200Z,53.65
2022-11-01T11:26:19.818Z,52.47
2022-11-01T11:28:53.557Z,53.30
2022-11-01T11:31:34.879Z,54.20
2022-11-01T11:34:28.657Z,52.13
2022-11-01T11:36:55.777Z,49.67
2022-11-01T11:39:37.411Z,51.30
2022-11-01T11:42:14.056Z,51.40
2022-11-01T11:44:44.975Z,53.22
2022-11-01T11:47:25.914Z,54.70
2022-11-01T11:49:54.143Z,54.78
2022-11-01T11:52:28.702Z,54.28
2022-11-01T11:54:55.764Z,54.17
2022-11-01T11:57:29.961Z,45.50
2022-11-01T12:00:05.922Z,41.83
2022-11-01T12:02:41.437Z,36.67
2022-11-01T12:05:16.847Z,34.22
2022-11-01T12:07:55.620Z,22.60
2022-11-01T12:10:39.065Z,20.73
2022-11-01T12:13:31.903Z,15.73
2022-11-01T12:16:14.311Z,14.93
2022-11-01T12:19:02.092Z,16.25
2022-11-01T12:21:41.198Z,10.52
2022-11-01T12:24:23.812Z,11.80
2022-11-01T12:26:55.771Z,8.38
2022-11-01T12:29:42.354Z,9.23
2022-11-01T12:32:30.372Z,10.90
2022-11-01T12:35:03.710Z,14.32
2022-11-01T12:38:00.249Z,16.40
2022-11-01T12:40:33.444Z,10.38
2022-11-01T12:43:12.234Z,10.43
2022-11-01T12:46:01.199Z,9.18
2022-11-01T12:48:37.316Z,13.95
2022-11-01T12:51:13.308Z,14.65
2022-11-01T12:54:15.613Z,10.52
2022-11-01T12:56:42.280Z,7.72
2022-11-01T12:59:13.325Z,9.05
2022-11-01T13:01:53.670Z,13.13
2022-11-01T13:04:36.096Z,19.63
2022-11-01T13:08:02.694Z,14.98
2022-11-01T13:10:43.806Z,13.52
2022-11-01T13:13:33.109Z,12.65
2022-11-01T13:16:21.905Z,9.40
2022-11-01T13:19:16.158Z,19.27
2022-11-01T13:21:53.214Z,11.55
2022-11-01T13:24:36.235Z,8.75
2022-11-01T13:27:23.578Z,15.07
2022-11-01T13:30:15.171Z,9.98
2022-11-01T13:32:59.355Z,13.20
2022-11-01T13:35:42.934Z,10.85
2022-11-01T13:38:38.054Z,14.48
2022-11-01T13:42:06.345Z,8.55
2022-11-01T13:44:38.005Z,10.45
2022-11-01T13:48:01.206Z,6.68
2022-11-01T13:50:40.861Z,19.35
2022-11-01T13:53:59.533Z,14.90
2022-11-01T13:56:39.877Z,9.60
2022-11-01T13:59:14.506Z,12.02
2022-11-01T14:01:41.320Z,11.23
2022-11-01T14:04:14.127Z,6.53
2022-11-01T14:06:43.560Z,14.88
2022-11-01T14:09:20.528Z,6.00
2022-11-01T14:11:55.263Z,9.32
2022-11-01T14:14:30.763Z,11.75
2022-11-01T14:17:15.932Z,14.30
2022-11-01T14:19:43.902Z,8.15
2022-11-01T14:22:28.734Z,15.05
2022-11-01T14:25:23.541Z,16.30
2022-11-01T14:28:11.818Z,12.73
2022-11-01T14:30:42.204Z,12.77
2022-11-01T14:33:14.477Z,9.40
2022-11-01T14:35:45.411Z,14.18
2022-11-01T14:38:20.208Z,9.27
2022-11-01T14:40:52.613Z,13.77
2022-11-01T14:43:44.076Z,10.98
2022-11-01T14:46:18.181Z,11.63
2022-11-01T14:49:06.478Z,16.40
2022-11-01T14:51:59.326Z,10.05
2022-11-01T14:54:44.039Z,12.90
2022-11-01T14:57:26.471Z,9.68
2022-11-01T14:59:54.909Z,14.68
2022-11-01T15:02:25.455Z,9.05
2022-11-01T15:04:59.935Z,14.75
2022-11-01T15:07:31.489Z,13.05
2022-11-01T15:10:09.622Z,8.95
2022-11-01T15:12:47.813Z,22.13
2022-11-01T15:15:38.045Z,12.55
2022-11-01T15:18:17.360Z,11.45
2022-11-01T15:20:54.819Z,12.10
2022-11-01T15:23:37.334Z,18.40
2022-11-01T15:26:14.818Z,16.40
2022-11-01T15:28:51.182Z,9.50
2022-11-01T15:31:19.055Z,16.70
2022-11-01T15:34:04.184Z,17.00
2022-11-01T15:36:35.183Z,8.98
2022-11-01T15:39:15.595Z,12.85
2022-11-01T15:41:42.551Z,14.18
2022-11-01T15:44:23.552Z,13.32
2022-11-01T15:46:55.296Z,13.73
2022-11-01T15:49:34.489Z,10.02
2022-11-01T15:52:19.649Z,8.15
2022-11-01T15:54:56.669Z,21.38
2022-11-01T15:57:36.586Z,10.35
2022-11-01T16:00:18.940Z,11.52
2022-11-01T16:02:53.705Z,15.20
2022-11-01T16:05:26.035Z,9.13
2022-11-01T16:07:53.114Z,12.30
2022-11-01T16:10:29.671Z,16.30
2022-11-01T16:12:58.137Z,16.60
2022-11-01T16:15:37.551Z,11.95
2022-11-01T16:18:16.663Z,14.60
2022-11-01T16:20:47.084Z,13.25
2022-11-01T16:23:28.457Z,15.48
2022-11-01T16:26:07.717Z,10.55
2022-11-01T16:28:45.431Z,10.98
2022-11-01T16:31:28.763Z,9.32
2022-11-01T16:33:58.681Z,8.20
2022-11-01T16:36:31.155Z,18.90
2022-11-01T16:38:57.751Z,14.68
2022-11-01T16:41:38.081Z,14.10
2022-11-01T16:44:15.918Z,12.45
2022-11-01T16:46:42.897Z,17.77
2022-11-01T16:49:15.132Z,16.23
2022-11-01T16:51:42.363Z,14.48
2022-11-01T16:54:10.358Z,12.50
2022-11-01T16:56:48.150Z,14.13
2022-11-01T16:59:33.364Z,13.13
2022-11-01T17:02:03.789Z,11.57
2022-11-01T17:04:30.938Z,18.17
2022-11-01T17:06:58.289Z,20.33
2022-11-01T17:09:30.578Z,16.92
2022-11-01T17:11:57.109Z,18.83
2022-11-01T17:14:24.001Z,13.45
2022-11-01T17:16:52.458Z,14.65
2022-11-01T17:19:35.872Z,17.20
2022-11-01T17:22:13.405Z,17.05
2022-11-01T17:24:40.186Z,15.52
2022-11-01T17:27:07.166Z,17.75
2022-11-01T17:29:33.801Z,16.70
2022-11-01T17:32:01.127Z,19.13
2022-11-01T17:34:28.912Z,12.70
2022-11-01T17:36:57.288Z,15.57
2022-11-01T17:39:29.465Z,13.45
2022-11-01T17:41:56.733Z,19.55
2022-11-01T17:44:23.307Z,10.30
2022-11-01T17:46:49.905Z,13.07
2022-11-01T17:49:18.407Z,11.68
2022-11-01T17:51:44.932Z,12.98
2022-11-01T17:54:11.629Z,12.27
2022-11-01T17:56:38.197Z,13.85
2022-11-01T17:59:04.762Z,12.80
2022-11-01T18:01:32.383Z,22.55
2022-11-01T18:03:59.074Z,16.35
2022-11-01T18:06:26.459Z,21.55
2022-11-01T18:08:53.955Z,20.23
2022-11-01T18:11:32.290Z,11.32
2022-11-01T18:14:38.171Z,18.45
2022-11-01T18:17:49.803Z,12.88
2022-11-01T18:20:47.222Z,12.98
2022-11-01T18:23:17.948Z,12.98
2022-11-01T18:25:48.458Z,12.95
2022-11-01T18:28:26.822Z,15.02
2022-11-01T18:31:27.270Z,10.07
2022-11-01T18:34:13.447Z,13.55
2022-11-01T18:36:53.221Z,19.27
2022-11-01T18:39:39.275Z,19.42
2022-11-01T18:42:08.783Z,26.23
2022-11-01T18:44:35.357Z,23.35
2022-11-01T18:47:43.130Z,18.55
2022-11-01T18:50:23.767Z,15.77
2022-11-01T18:53:10.498Z,24.38
2022-11-01T18:55:38.222Z,32.28
2022-11-01T18:58:25.535Z,27.35
2022-11-01T19:01:17.786Z,26.33
2022-11-01T19:03:45.043Z,27.45
2022-11-01T19:06:22.410Z,23.85
2022-11-01T19:08:56.592Z,29.00
2022-11-01T19:11:26.040Z,31.17
2022-11-01T19:13:53.736Z,29.35
2022-11-01T19:16:20.971Z,29.52
2022-11-01T19:18:49.657Z,30.58
2022-11-01T19:21:19.855Z,28.80
2022-11-01T19:23:57.948Z,35.72
2022-11-01T19:26:42.339Z,39.58
2022-11-01T19:29:21.083Z,51.58
2022-11-01T19:31:51.116Z,35.42
2022-11-01T19:34:25.040Z,45.33
2022-11-01T19:36:52.729Z,37.42
2022-11-01T19:39:25.443Z,41.90
2022-11-01T19:41:54.593Z,42.33
2022-11-01T19:44:25.171Z,46.35
2022-11-01T19:47:21.493Z,44.03
2022-11-01T19:49:48.955Z,46.30
2022-11-01T19:52:29.914Z,43.88
2022-11-01T19:54:56.475Z,45.42
2022-11-01T19:57:33.422Z,44.38
2022-11-01T20:00:22.126Z,41.67
2022-11-01T20:02:51.831Z,43.58
2022-11-01T20:05:34.533Z,43.83
2022-11-01T20:08:35.356Z,48.92
2022-11-01T20:11:01.923Z,47.40
2022-11-01T20:13:28.474Z,46.50
2022-11-01T20:15:55.429Z,46.70
2022-11-01T20:18:22.070Z,46.88
2022-11-01T20:20:48.604Z,43.78
2022-11-01T20:23:30.573Z,47.45
2022-11-01T20:25:57.197Z,48.40
2022-11-01T20:28:23.816Z,46.38
2022-11-01T20:30:50.377Z,44.00
2022-11-01T20:33:17.121Z,48.53
2022-11-01T20:35:43.897Z,49.60
2022-11-01T20:38:10.520Z,47.33
2022-11-01T20:40:37.199Z,48.45
2022-11-01T20:43:04.223Z,51.05
2022-11-01T20:45:31.071Z,51.88
2022-11-01T20:47:57.626Z,53.63
2022-11-01T20:50:24.159Z,50.83
2022-11-01T20:52:51.115Z,51.88
2022-11-01T20:55:18.099Z,55.03
2022-11-01T20:57:44.812Z,54.67
2022-11-01T21:00:21.716Z,52.80
2022-11-01T21:02:48.646Z,53.00
2022-11-01T21:05:24.310Z,54.10
2022-11-01T21:08:13.374Z,58.17
2022-11-01T21:10:42.565Z,55.40
2022-11-01T21:13:22.300Z,54.38
2022-11-01T21:15:49.863Z,53.72
2022-11-01T21:18:17.306Z,53.80
2022-11-01T21:20:49.158Z,55.28
2022-11-01T21:23:21.449Z,54.80
2022-11-01T21:26:01.017Z,54.30
2022-11-01T21:28:39.965Z,56.53
2022-11-01T21:31:24.238Z,56.28
2022-11-01T21:33:54.966Z,56.83
2022-11-01T21:36:21.346Z,55.03
2022-11-01T21:38:59.531Z,56.80
2022-11-01T21:41:33.208Z,57.55
2022-11-01T22:07:10.056Z,44.80
2022-11-01T22:09:37.850Z,43.40
2022-11-01T22:12:11.161Z,43.50
2022-11-01T22:14:38.041Z,42.83
2022-11-01T22:17:04.690Z,44.73
2022-11-01T22:19:31.468Z,44.50
2022-11-01T22:21:58.135Z,45.70
2022-11-01T22:24:25.100Z,46.07
2022-11-01T22:26:51.868Z,45.93
2022-11-01T22:29:18.526Z,45.30
2022-11-01T22:31:45.163Z,49.03
2022-11-01T22:34:12.019Z,48.83
2022-11-01T22:36:41.744Z,49.23
2022-11-01T22:39:21.374Z,47.77
2022-11-01T22:41:48.763Z,48.10
2022-11-01T22:44:25.941Z,49.35
2022-11-01T22:46:59.104Z,50.77
2022-11-01T22:49:45.376Z,50.13
2022-11-01T22:52:38.734Z,50.73
2022-11-01T22:55:11.384Z,49.40
2022-11-01T22:57:54.662Z,50.03
2022-11-01T23:00:36.158Z,50.22
2022-11-01T23:03:22.339Z,50.67
2022-11-01T23:06:00.099Z,49.87
2022-11-01T23:08:32.404Z,51.97
2022-11-01T23:11:00.136Z,52.17
2022-11-01T23:13:55.610Z,53.30
2022-11-01T23:16:36.855Z,53.92
2022-11-01T23:19:09.607Z,53.70
2022-11-01T23:21:36.568Z,55.30
2022-11-01T23:24:03.532Z,53.63
2022-11-01T23:26:31.232Z,53.73
2022-11-01T23:28:58.729Z,50.03
2022-11-01T23:31:28.355Z,52.60
2022-11-01T23:33:55.452Z,51.53
2022-11-01T23:36:33.124Z,53.00
2022-11-01T23:39:11.808Z,53.23
2022-11-01T23:41:45.317Z,52.13
2022-11-01T23:44:28.417Z,52.07
2022-11-01T23:47:30.494Z,52.40
2022-11-01T23:50:26.794Z,53.80
2022-11-01T23:52:57.904Z,52.93
2022-11-01T23:55:37.946Z,54.43
2022-11-01T23:58:12.457Z,52.87
